createdAt,value
2023-01-17T00:04:35.033Z,0.7
2023-01-17T00:20:09.655Z,0.6
2023-01-17T00:35:44.185Z,0.5
2023-01-17T00:51:18.792Z,0.9
2023-01-17T01:06:53.393Z,1
2023-01-17T01:22:27.974Z,0.8
2023-01-17T01:38:02.590Z,0.8
2023-01-17T01:53:37.454Z,1
2023-01-17T02:09:12.019Z,0.7
2023-01-17T02:24:46.619Z,0.5
2023-01-17T02:40:21.186Z,0.7
2023-01-17T02:55:55.769Z,0.7
2023-01-17T03:11:30.326Z,0.4
2023-01-17T03:27:04.911Z,0
2023-01-17T03:42:39.465Z,0.4
2023-01-17T03:58:14.017Z,0.4
2023-01-17T04:13:48.587Z,0.6
2023-01-17T04:29:23.182Z,0.6
2023-01-17T04:44:57.757Z,1.1
2023-01-17T05:00:32.330Z,0.9
2023-01-17T05:16:07.078Z,0.8
2023-01-17T05:31:42.143Z,0.8
2023-01-17T05:47:16.824Z,0.8
2023-01-17T06:02:51.479Z,0.7
2023-01-17T06:18:25.985Z,1.2
2023-01-17T06:34:00.572Z,1.2
2023-01-17T06:49:35.143Z,0.8
2023-01-17T07:05:09.743Z,0.9
2023-01-17T07:20:44.330Z,1.4
2023-01-17T07:36:18.904Z,1
2023-01-17T07:51:53.528Z,1.1
2023-01-17T08:07:28.127Z,3.1
2023-01-17T08:23:02.723Z,0.6
2023-01-17T08:38:37.324Z,1
2023-01-17T08:54:11.928Z,0.7
2023-01-17T09:09:46.579Z,0.9
2023-01-17T09:25:21.175Z,0.7
2023-01-17T09:40:55.781Z,1.1
2023-01-17T09:56:30.534Z,0.9
2023-01-17T10:12:05.179Z,0.4
2023-01-17T10:27:39.791Z,1.6
2023-01-17T10:43:14.696Z,0.9
2023-01-17T10:58:49.318Z,1.1
2023-01-17T11:14:23.942Z,0.8
2023-01-17T11:30:00.596Z,1.1
2023-01-17T11:45:35.209Z,0.7
2023-01-17T12:01:09.935Z,1.1
2023-01-17T12:16:44.748Z,1.4
2023-01-17T12:32:19.376Z,1.3
2023-01-17T12:47:54.228Z,1.4
2023-01-17T13:03:28.871Z,1.1
2023-01-17T13:19:03.470Z,1.5
2023-01-17T13:34:38.071Z,1.5
2023-01-17T13:50:12.691Z,1.3
2023-01-17T14:05:47.512Z,1.5
2023-01-17T14:21:22.108Z,1.4
2023-01-17T14:36:56.662Z,1.4
2023-01-17T14:52:31.231Z,1.3
2023-01-17T15:08:05.878Z,1.2
2023-01-17T15:23:40.448Z,1.9
2023-01-17T15:39:15.025Z,1.9
2023-01-17T15:54:49.597Z,2.3
2023-01-17T16:10:24.174Z,1.6
2023-01-17T16:25:58.774Z,1.6
2023-01-17T16:41:33.366Z,1.5
2023-01-17T16:57:07.979Z,1.7
2023-01-17T17:12:42.575Z,2.2
2023-01-17T17:28:17.532Z,3.1
2023-01-17T17:43:52.439Z,1.7
2023-01-17T17:59:27.035Z,2.9
2023-01-17T18:15:01.648Z,1.6
2023-01-17T18:30:36.348Z,2.4
2023-01-17T18:46:11.034Z,2.1
2023-01-17T19:01:46.184Z,1.7
2023-01-17T19:17:21.061Z,1.8
2023-01-17T19:32:55.652Z,3.9
2023-01-17T19:48:30.198Z,3
2023-01-17T20:04:04.776Z,2.6
2023-01-17T20:19:39.430Z,2.3
2023-01-17T20:35:14.034Z,2.6
2023-01-17T20:50:48.598Z,2.6
2023-01-17T21:06:23.198Z,2.8
2023-01-17T21:22:00.672Z,5
2023-01-17T21:37:35.228Z,3.8
2023-01-17T21:53:12.249Z,6.2
2023-01-17T22:08:46.672Z,6
2023-01-17T22:24:21.192Z,5.4
2023-01-17T22:39:55.579Z,4.1
2023-01-17T22:55:30.008Z,5.8
2023-01-17T23:11:04.415Z,5.4
2023-01-17T23:26:38.757Z,4.3
2023-01-17T23:42:13.112Z,4.1
2023-01-17T23:57:47.444Z,3.9
